YGIG weather

RAAF Gingin
Western Australia, Australia

Public forecast

Using degrees Celsius for public forecast. Weather courtesy of forecast.io.

METAR (pilot weather report)

Closest report is RAAF Base Pearce, 14.4 nm (26.7 km) SSE. Retrieved 2019/03/23 08:00 UTC (5 minutes ago):

YPEA 230800Z AUTO 12010KT 9999 // NCD 27/06 Q1014

TAF (pilot weather forecast)

Closest forecast is RAAF Base Pearce, 14.4 nm (26.7 km) SSE. Retrieved 2019/03/23 06:00 UTC (2 hours ago):

TAF YPEA 230431Z 2306/2324 12012KT CAVOK FM231200 18008KT CAVOK